Terminal Aerodrome Forecast
Issued by NWS Louisville, KY

Home | Current Version | Previous Version | Text Only | Print | Product List | Glossary On
Versions: 1 2 3 4 5 6 7 8 9 10 11 12 13 14 15
000
FTUS43 KLMK 212333
TAFSDF
TAF
KSDF 212333Z 2200/2306 VRB03KT P6SM FEW060
      TEMPO 2209/2213 5SM BR
     FM221500 08005KT P6SM FEW040
     FM230000 VRB03KT P6SM SKC=

USA.gov is the U.S. government's official web portal to all federal, state and local government web resources and services.